sensor_id;sensor_type;location;lat;lon;timestamp;P1;durP1;ratioP1;P2;durP2;ratioP2
65174;SDS011;51761;42.126;24.752;2023-07-29T00:01:06;7.20;;;3.20;;
65174;SDS011;51761;42.126;24.752;2023-07-29T00:03:31;6.88;;;3.42;;
65174;SDS011;51761;42.126;24.752;2023-07-29T00:05:57;4.25;;;2.97;;
65174;SDS011;51761;42.126;24.752;2023-07-29T00:08:23;13.48;;;3.50;;
65174;SDS011;51761;42.126;24.752;2023-07-29T00:10:48;7.43;;;3.05;;
65174;SDS011;51761;42.126;24.752;2023-07-29T00:13:14;6.15;;;2.95;;
65174;SDS011;51761;42.126;24.752;2023-07-29T00:15:39;9.55;;;3.42;;
65174;SDS011;51761;42.126;24.752;2023-07-29T00:18:05;6.97;;;3.05;;
65174;SDS011;51761;42.126;24.752;2023-07-29T00:20:30;5.78;;;3.28;;
65174;SDS011;51761;42.126;24.752;2023-07-29T00:22:55;6.32;;;3.45;;
65174;SDS011;51761;42.126;24.752;2023-07-29T00:25:23;4.72;;;2.88;;
65174;SDS011;51761;42.126;24.752;2023-07-29T00:27:48;11.15;;;3.25;;
65174;SDS011;51761;42.126;24.752;2023-07-29T00:30:14;6.20;;;3.17;;
65174;SDS011;51761;42.126;24.752;2023-07-29T00:32:39;8.05;;;2.70;;
65174;SDS011;51761;42.126;24.752;2023-07-29T00:35:05;8.35;;;3.53;;
65174;SDS011;51761;42.126;24.752;2023-07-29T00:37:31;3.88;;;2.85;;
65174;SDS011;51761;42.126;24.752;2023-07-29T00:39:57;5.90;;;2.80;;
65174;SDS011;51761;42.126;24.752;2023-07-29T00:42:23;9.60;;;2.90;;
65174;SDS011;51761;42.126;24.752;2023-07-29T00:44:49;4.60;;;3.08;;
65174;SDS011;51761;42.126;24.752;2023-07-29T00:47:15;4.80;;;2.78;;
65174;SDS011;51761;42.126;24.752;2023-07-29T00:49:41;9.85;;;3.20;;
65174;SDS011;51761;42.126;24.752;2023-07-29T00:52:09;5.30;;;3.33;;
65174;SDS011;51761;42.126;24.752;2023-07-29T00:54:37;4.95;;;2.85;;
65174;SDS011;51761;42.126;24.752;2023-07-29T00:57:03;4.20;;;3.00;;
65174;SDS011;51761;42.126;24.752;2023-07-29T00:59:30;5.70;;;3.20;;
65174;SDS011;51761;42.126;24.752;2023-07-29T01:01:57;9.43;;;3.55;;
65174;SDS011;51761;42.126;24.752;2023-07-29T01:04:22;11.13;;;3.85;;
65174;SDS011;51761;42.126;24.752;2023-07-29T01:12:54;9.15;;;3.30;;
65174;SDS011;51761;42.126;24.752;2023-07-29T01:15:28;9.40;;;4.05;;
65174;SDS011;51761;42.126;24.752;2023-07-29T01:18:06;7.55;;;3.85;;
65174;SDS011;51761;42.126;24.752;2023-07-29T01:20:37;6.35;;;3.42;;
65174;SDS011;51761;42.126;24.752;2023-07-29T01:23:06;10.82;;;3.22;;
65174;SDS011;51761;42.126;24.752;2023-07-29T01:25:32;8.35;;;3.53;;
65174;SDS011;51761;42.126;24.752;2023-07-29T01:27:57;6.70;;;3.92;;
65174;SDS011;51761;42.126;24.752;2023-07-29T01:30:26;6.35;;;4.13;;
65174;SDS011;51761;42.126;24.752;2023-07-29T01:35:50;7.18;;;4.10;;
65174;SDS011;51761;42.126;24.752;2023-07-29T01:38:20;8.40;;;3.70;;
65174;SDS011;51761;42.126;24.752;2023-07-29T01:40:59;7.53;;;4.68;;
65174;SDS011;51761;42.126;24.752;2023-07-29T01:43:29;8.00;;;3.90;;
65174;SDS011;51761;42.126;24.752;2023-07-29T01:45:56;11.30;;;4.32;;
65174;SDS011;51761;42.126;24.752;2023-07-29T01:48:22;7.47;;;4.65;;
65174;SDS011;51761;42.126;24.752;2023-07-29T01:50:47;12.73;;;4.80;;
65174;SDS011;51761;42.126;24.752;2023-07-29T01:53:13;11.98;;;4.72;;
65174;SDS011;51761;42.126;24.752;2023-07-29T01:55:38;13.40;;;4.68;;
65174;SDS011;51761;42.126;24.752;2023-07-29T01:58:04;7.40;;;4.28;;
65174;SDS011;51761;42.126;24.752;2023-07-29T02:00:30;7.28;;;3.90;;
65174;SDS011;51761;42.126;24.752;2023-07-29T02:02:55;8.68;;;4.18;;
65174;SDS011;51761;42.126;24.752;2023-07-29T02:05:21;8.80;;;4.68;;
65174;SDS011;51761;42.126;24.752;2023-07-29T02:07:46;8.30;;;4.18;;
65174;SDS011;51761;42.126;24.752;2023-07-29T02:10:12;11.85;;;5.18;;
65174;SDS011;51761;42.126;24.752;2023-07-29T02:12:37;7.95;;;4.75;;
65174;SDS011;51761;42.126;24.752;2023-07-29T02:15:03;11.15;;;4.60;;
65174;SDS011;51761;42.126;24.752;2023-07-29T02:17:30;9.13;;;3.80;;
65174;SDS011;51761;42.126;24.752;2023-07-29T02:19:55;11.73;;;4.47;;
65174;SDS011;51761;42.126;24.752;2023-07-29T02:22:21;11.20;;;5.03;;
65174;SDS011;51761;42.126;24.752;2023-07-29T02:24:46;9.30;;;4.70;;
65174;SDS011;51761;42.126;24.752;2023-07-29T02:27:12;10.63;;;4.85;;
65174;SDS011;51761;42.126;24.752;2023-07-29T02:29:37;6.93;;;4.82;;
65174;SDS011;51761;42.126;24.752;2023-07-29T02:32:03;5.30;;;4.00;;
65174;SDS011;51761;42.126;24.752;2023-07-29T02:34:29;9.10;;;4.53;;
65174;SDS011;51761;42.126;24.752;2023-07-29T02:36:54;6.97;;;4.43;;
65174;SDS011;51761;42.126;24.752;2023-07-29T02:39:20;7.53;;;5.00;;
65174;SDS011;51761;42.126;24.752;2023-07-29T02:41:46;6.63;;;3.97;;
65174;SDS011;51761;42.126;24.752;2023-07-29T02:44:11;11.23;;;4.55;;
65174;SDS011;51761;42.126;24.752;2023-07-29T02:46:36;9.90;;;6.03;;
65174;SDS011;51761;42.126;24.752;2023-07-29T02:49:02;36.55;;;19.50;;
65174;SDS011;51761;42.126;24.752;2023-07-29T02:51:29;14.70;;;6.50;;
65174;SDS011;51761;42.126;24.752;2023-07-29T02:53:55;20.10;;;10.73;;
65174;SDS011;51761;42.126;24.752;2023-07-29T02:56:21;15.68;;;10.05;;
65174;SDS011;51761;42.126;24.752;2023-07-29T02:58:46;10.60;;;5.28;;
65174;SDS011;51761;42.126;24.752;2023-07-29T03:01:12;9.25;;;5.63;;
65174;SDS011;51761;42.126;24.752;2023-07-29T03:03:37;28.98;;;15.68;;
65174;SDS011;51761;42.126;24.752;2023-07-29T03:06:07;41.28;;;20.33;;
65174;SDS011;51761;42.126;24.752;2023-07-29T03:08:34;15.18;;;6.22;;
65174;SDS011;51761;42.126;24.752;2023-07-29T03:11:05;8.55;;;5.28;;
65174;SDS011;51761;42.126;24.752;2023-07-29T03:13:34;9.55;;;5.18;;
65174;SDS011;51761;42.126;24.752;2023-07-29T03:16:10;8.73;;;5.13;;
65174;SDS011;51761;42.126;24.752;2023-07-29T03:18:36;9.10;;;5.80;;
65174;SDS011;51761;42.126;24.752;2023-07-29T03:21:02;9.55;;;5.03;;
65174;SDS011;51761;42.126;24.752;2023-07-29T03:23:28;7.30;;;4.88;;
65174;SDS011;51761;42.126;24.752;2023-07-29T03:25:55;6.85;;;5.22;;
65174;SDS011;51761;42.126;24.752;2023-07-29T03:28:26;8.55;;;4.93;;
65174;SDS011;51761;42.126;24.752;2023-07-29T03:30:55;9.50;;;4.88;;
65174;SDS011;51761;42.126;24.752;2023-07-29T03:33:21;10.10;;;4.90;;
65174;SDS011;51761;42.126;24.752;2023-07-29T03:35:47;9.95;;;4.75;;
65174;SDS011;51761;42.126;24.752;2023-07-29T03:38:13;11.27;;;4.88;;
65174;SDS011;51761;42.126;24.752;2023-07-29T03:40:39;11.55;;;4.80;;
65174;SDS011;51761;42.126;24.752;2023-07-29T03:43:04;18.95;;;9.65;;
65174;SDS011;51761;42.126;24.752;2023-07-29T03:45:30;8.88;;;5.28;;
65174;SDS011;51761;42.126;24.752;2023-07-29T03:47:57;11.85;;;4.65;;
65174;SDS011;51761;42.126;24.752;2023-07-29T03:50:22;6.97;;;4.18;;
65174;SDS011;51761;42.126;24.752;2023-07-29T03:52:48;9.35;;;4.18;;
65174;SDS011;51761;42.126;24.752;2023-07-29T03:55:14;11.27;;;4.07;;
65174;SDS011;51761;42.126;24.752;2023-07-29T03:57:39;7.88;;;4.13;;
65174;SDS011;51761;42.126;24.752;2023-07-29T04:00:05;11.07;;;4.30;;
65174;SDS011;51761;42.126;24.752;2023-07-29T04:02:31;6.05;;;3.88;;
65174;SDS011;51761;42.126;24.752;2023-07-29T04:04:56;10.60;;;3.67;;
65174;SDS011;51761;42.126;24.752;2023-07-29T04:07:22;8.30;;;3.83;;
65174;SDS011;51761;42.126;24.752;2023-07-29T04:09:48;6.68;;;3.95;;
65174;SDS011;51761;42.126;24.752;2023-07-29T04:12:14;9.55;;;4.40;;
65174;SDS011;51761;42.126;24.752;2023-07-29T04:14:40;10.77;;;3.80;;
65174;SDS011;51761;42.126;24.752;2023-07-29T04:17:05;9.13;;;4.30;;
65174;SDS011;51761;42.126;24.752;2023-07-29T04:19:31;6.50;;;3.92;;
65174;SDS011;51761;42.126;24.752;2023-07-29T04:21:57;10.63;;;4.60;;
65174;SDS011;51761;42.126;24.752;2023-07-29T04:24:22;6.25;;;4.18;;
65174;SDS011;51761;42.126;24.752;2023-07-29T04:26:48;13.88;;;9.18;;
65174;SDS011;51761;42.126;24.752;2023-07-29T04:29:14;17.77;;;10.15;;
65174;SDS011;51761;42.126;24.752;2023-07-29T04:31:39;32.30;;;18.63;;
65174;SDS011;51761;42.126;24.752;2023-07-29T04:34:05;32.78;;;11.80;;
65174;SDS011;51761;42.126;24.752;2023-07-29T04:36:31;17.67;;;5.07;;
65174;SDS011;51761;42.126;24.752;2023-07-29T04:38:56;9.23;;;5.55;;
65174;SDS011;51761;42.126;24.752;2023-07-29T04:41:22;6.20;;;4.35;;
65174;SDS011;51761;42.126;24.752;2023-07-29T04:43:47;12.88;;;4.70;;
65174;SDS011;51761;42.126;24.752;2023-07-29T04:46:14;10.32;;;4.53;;
65174;SDS011;51761;42.126;24.752;2023-07-29T04:48:40;8.93;;;5.45;;
65174;SDS011;51761;42.126;24.752;2023-07-29T04:51:05;20.17;;;6.55;;
65174;SDS011;51761;42.126;24.752;2023-07-29T04:53:31;8.18;;;4.28;;
65174;SDS011;51761;42.126;24.752;2023-07-29T04:55:56;13.60;;;5.45;;
65174;SDS011;51761;42.126;24.752;2023-07-29T04:58:22;14.35;;;5.05;;
65174;SDS011;51761;42.126;24.752;2023-07-29T05:00:47;10.82;;;4.63;;
65174;SDS011;51761;42.126;24.752;2023-07-29T05:03:13;13.88;;;5.68;;
65174;SDS011;51761;42.126;24.752;2023-07-29T05:05:38;9.40;;;4.65;;
65174;SDS011;51761;42.126;24.752;2023-07-29T05:08:04;10.35;;;4.57;;
65174;SDS011;51761;42.126;24.752;2023-07-29T05:10:29;9.05;;;4.30;;
65174;SDS011;51761;42.126;24.752;2023-07-29T05:12:54;8.65;;;4.65;;
65174;SDS011;51761;42.126;24.752;2023-07-29T05:15:20;11.65;;;5.10;;
65174;SDS011;51761;42.126;24.752;2023-07-29T05:17:45;11.73;;;4.50;;
65174;SDS011;51761;42.126;24.752;2023-07-29T05:20:11;8.35;;;4.57;;
65174;SDS011;51761;42.126;24.752;2023-07-29T05:22:36;11.65;;;5.07;;
65174;SDS011;51761;42.126;24.752;2023-07-29T05:25:02;11.20;;;4.80;;
65174;SDS011;51761;42.126;24.752;2023-07-29T05:27:28;20.27;;;5.15;;
65174;SDS011;51761;42.126;24.752;2023-07-29T05:29:53;9.63;;;4.53;;
65174;SDS011;51761;42.126;24.752;2023-07-29T05:32:19;11.73;;;6.47;;
65174;SDS011;51761;42.126;24.752;2023-07-29T05:34:44;12.85;;;4.70;;
65174;SDS011;51761;42.126;24.752;2023-07-29T05:37:10;16.70;;;8.57;;
65174;SDS011;51761;42.126;24.752;2023-07-29T05:39:35;8.60;;;4.68;;
65174;SDS011;51761;42.126;24.752;2023-07-29T05:42:01;8.73;;;4.05;;
65174;SDS011;51761;42.126;24.752;2023-07-29T05:44:29;11.55;;;5.82;;
65174;SDS011;51761;42.126;24.752;2023-07-29T05:46:55;16.15;;;5.40;;
65174;SDS011;51761;42.126;24.752;2023-07-29T05:49:21;20.05;;;7.50;;
65174;SDS011;51761;42.126;24.752;2023-07-29T05:51:47;12.73;;;4.22;;
65174;SDS011;51761;42.126;24.752;2023-07-29T05:54:12;14.48;;;4.50;;
65174;SDS011;51761;42.126;24.752;2023-07-29T05:56:38;12.60;;;6.45;;
65174;SDS011;51761;42.126;24.752;2023-07-29T05:59:03;6.97;;;4.15;;
65174;SDS011;51761;42.126;24.752;2023-07-29T06:01:29;8.27;;;4.68;;
65174;SDS011;51761;42.126;24.752;2023-07-29T06:03:54;8.05;;;4.05;;
65174;SDS011;51761;42.126;24.752;2023-07-29T06:06:19;7.05;;;3.78;;
65174;SDS011;51761;42.126;24.752;2023-07-29T06:08:45;14.02;;;5.85;;
65174;SDS011;51761;42.126;24.752;2023-07-29T06:11:10;11.50;;;5.53;;
65174;SDS011;51761;42.126;24.752;2023-07-29T06:13:36;46.72;;;21.52;;
65174;SDS011;51761;42.126;24.752;2023-07-29T06:16:01;10.60;;;5.35;;
65174;SDS011;51761;42.126;24.752;2023-07-29T06:18:27;9.48;;;3.33;;
65174;SDS011;51761;42.126;24.752;2023-07-29T06:20:52;8.88;;;4.13;;
65174;SDS011;51761;42.126;24.752;2023-07-29T06:23:18;9.25;;;3.47;;
65174;SDS011;51761;42.126;24.752;2023-07-29T06:25:43;6.55;;;3.90;;
65174;SDS011;51761;42.126;24.752;2023-07-29T06:28:09;10.50;;;5.35;;
65174;SDS011;51761;42.126;24.752;2023-07-29T06:30:35;11.38;;;4.40;;
65174;SDS011;51761;42.126;24.752;2023-07-29T06:33:01;8.50;;;4.68;;
65174;SDS011;51761;42.126;24.752;2023-07-29T06:35:28;16.52;;;6.43;;
65174;SDS011;51761;42.126;24.752;2023-07-29T06:37:53;22.05;;;6.10;;
65174;SDS011;51761;42.126;24.752;2023-07-29T06:40:19;11.05;;;5.70;;
65174;SDS011;51761;42.126;24.752;2023-07-29T06:42:44;10.88;;;6.78;;
65174;SDS011;51761;42.126;24.752;2023-07-29T06:45:10;9.07;;;3.80;;
65174;SDS011;51761;42.126;24.752;2023-07-29T06:47:36;11.68;;;4.00;;
65174;SDS011;51761;42.126;24.752;2023-07-29T06:50:02;6.25;;;3.30;;
65174;SDS011;51761;42.126;24.752;2023-07-29T06:52:28;8.75;;;4.95;;
65174;SDS011;51761;42.126;24.752;2023-07-29T06:54:53;7.85;;;4.90;;
65174;SDS011;51761;42.126;24.752;2023-07-29T06:57:19;7.88;;;4.45;;
65174;SDS011;51761;42.126;24.752;2023-07-29T06:59:46;4.97;;;3.58;;
65174;SDS011;51761;42.126;24.752;2023-07-29T07:02:11;7.32;;;3.75;;
65174;SDS011;51761;42.126;24.752;2023-07-29T07:04:37;5.65;;;3.38;;
65174;SDS011;51761;42.126;24.752;2023-07-29T07:07:02;11.32;;;3.75;;
65174;SDS011;51761;42.126;24.752;2023-07-29T07:09:28;8.07;;;3.17;;
65174;SDS011;51761;42.126;24.752;2023-07-29T07:11:53;5.72;;;3.10;;
65174;SDS011;51761;42.126;24.752;2023-07-29T07:14:19;6.32;;;3.63;;
65174;SDS011;51761;42.126;24.752;2023-07-29T07:16:44;12.25;;;3.40;;
65174;SDS011;51761;42.126;24.752;2023-07-29T07:19:10;7.30;;;2.92;;
65174;SDS011;51761;42.126;24.752;2023-07-29T07:21:36;17.55;;;3.40;;
65174;SDS011;51761;42.126;24.752;2023-07-29T07:24:01;6.57;;;3.05;;
65174;SDS011;51761;42.126;24.752;2023-07-29T07:26:27;16.90;;;3.80;;
65174;SDS011;51761;42.126;24.752;2023-07-29T07:28:52;10.05;;;5.07;;
65174;SDS011;51761;42.126;24.752;2023-07-29T07:31:18;16.23;;;4.00;;
65174;SDS011;51761;42.126;24.752;2023-07-29T07:33:44;10.05;;;2.88;;
65174;SDS011;51761;42.126;24.752;2023-07-29T07:36:09;7.30;;;3.47;;
65174;SDS011;51761;42.126;24.752;2023-07-29T07:38:35;9.15;;;4.07;;
65174;SDS011;51761;42.126;24.752;2023-07-29T07:41:00;7.28;;;3.30;;
65174;SDS011;51761;42.126;24.752;2023-07-29T07:43:26;6.18;;;3.25;;
65174;SDS011;51761;42.126;24.752;2023-07-29T07:45:56;7.55;;;3.47;;
65174;SDS011;51761;42.126;24.752;2023-07-29T07:48:23;7.80;;;3.10;;
65174;SDS011;51761;42.126;24.752;2023-07-29T07:50:49;11.90;;;3.25;;
65174;SDS011;51761;42.126;24.752;2023-07-29T07:53:14;7.43;;;3.00;;
65174;SDS011;51761;42.126;24.752;2023-07-29T07:55:40;6.03;;;3.65;;
65174;SDS011;51761;42.126;24.752;2023-07-29T07:58:06;12.65;;;3.95;;
65174;SDS011;51761;42.126;24.752;2023-07-29T08:00:31;7.60;;;3.60;;
65174;SDS011;51761;42.126;24.752;2023-07-29T08:02:57;9.88;;;4.03;;
65174;SDS011;51761;42.126;24.752;2023-07-29T08:05:22;10.98;;;3.13;;
65174;SDS011;51761;42.126;24.752;2023-07-29T08:07:48;6.22;;;3.33;;
65174;SDS011;51761;42.126;24.752;2023-07-29T08:10:13;7.88;;;3.25;;
65174;SDS011;51761;42.126;24.752;2023-07-29T08:12:38;9.95;;;4.85;;
65174;SDS011;51761;42.126;24.752;2023-07-29T08:15:04;10.05;;;5.90;;
65174;SDS011;51761;42.126;24.752;2023-07-29T08:17:30;15.82;;;5.47;;
65174;SDS011;51761;42.126;24.752;2023-07-29T08:19:55;15.10;;;5.70;;
65174;SDS011;51761;42.126;24.752;2023-07-29T08:22:21;6.30;;;3.03;;
65174;SDS011;51761;42.126;24.752;2023-07-29T08:24:46;7.90;;;3.38;;
65174;SDS011;51761;42.126;24.752;2023-07-29T08:27:12;6.55;;;3.00;;
65174;SDS011;51761;42.126;24.752;2023-07-29T08:29:38;4.10;;;3.05;;
65174;SDS011;51761;42.126;24.752;2023-07-29T08:32:04;11.43;;;4.15;;
65174;SDS011;51761;42.126;24.752;2023-07-29T08:34:29;8.60;;;3.30;;
65174;SDS011;51761;42.126;24.752;2023-07-29T08:36:55;9.63;;;5.00;;
65174;SDS011;51761;42.126;24.752;2023-07-29T08:39:20;5.82;;;3.10;;
65174;SDS011;51761;42.126;24.752;2023-07-29T08:42:06;13.82;;;3.30;;
65174;SDS011;51761;42.126;24.752;2023-07-29T08:44:40;9.70;;;5.47;;
65174;SDS011;51761;42.126;24.752;2023-07-29T08:47:07;12.05;;;4.35;;
65174;SDS011;51761;42.126;24.752;2023-07-29T08:49:33;6.10;;;3.45;;
65174;SDS011;51761;42.126;24.752;2023-07-29T08:51:59;4.53;;;3.10;;
65174;SDS011;51761;42.126;24.752;2023-07-29T08:54:26;7.88;;;3.20;;
65174;SDS011;51761;42.126;24.752;2023-07-29T08:56:51;10.82;;;3.47;;
65174;SDS011;51761;42.126;24.752;2023-07-29T08:59:17;15.90;;;7.40;;
65174;SDS011;51761;42.126;24.752;2023-07-29T09:01:44;7.88;;;3.15;;
65174;SDS011;51761;42.126;24.752;2023-07-29T09:04:10;7.72;;;4.00;;
65174;SDS011;51761;42.126;24.752;2023-07-29T09:06:35;5.55;;;3.38;;
65174;SDS011;51761;42.126;24.752;2023-07-29T09:09:05;6.45;;;3.90;;
65174;SDS011;51761;42.126;24.752;2023-07-29T09:11:32;6.97;;;3.28;;
65174;SDS011;51761;42.126;24.752;2023-07-29T09:13:58;7.28;;;3.50;;
65174;SDS011;51761;42.126;24.752;2023-07-29T09:16:24;4.43;;;3.05;;
65174;SDS011;51761;42.126;24.752;2023-07-29T09:18:50;10.27;;;3.13;;
65174;SDS011;51761;42.126;24.752;2023-07-29T09:21:23;5.45;;;2.88;;
65174;SDS011;51761;42.126;24.752;2023-07-29T09:26:21;6.55;;;3.58;;
65174;SDS011;51761;42.126;24.752;2023-07-29T09:28:52;5.65;;;3.08;;
65174;SDS011;51761;42.126;24.752;2023-07-29T09:31:19;6.95;;;3.60;;
65174;SDS011;51761;42.126;24.752;2023-07-29T09:33:46;13.80;;;4.40;;
65174;SDS011;51761;42.126;24.752;2023-07-29T09:36:12;3.53;;;2.92;;
65174;SDS011;51761;42.126;24.752;2023-07-29T09:38:37;4.28;;;2.72;;
65174;SDS011;51761;42.126;24.752;2023-07-29T09:41:03;4.85;;;2.92;;
65174;SDS011;51761;42.126;24.752;2023-07-29T09:43:29;4.22;;;2.92;;
65174;SDS011;51761;42.126;24.752;2023-07-29T09:45:59;9.35;;;4.10;;
65174;SDS011;51761;42.126;24.752;2023-07-29T09:48:32;8.80;;;3.30;;
65174;SDS011;51761;42.126;24.752;2023-07-29T09:50:58;6.32;;;3.65;;
65174;SDS011;51761;42.126;24.752;2023-07-29T09:53:24;10.73;;;2.83;;
65174;SDS011;51761;42.126;24.752;2023-07-29T09:55:50;14.13;;;2.90;;
65174;SDS011;51761;42.126;24.752;2023-07-29T09:58:26;7.03;;;3.10;;
65174;SDS011;51761;42.126;24.752;2023-07-29T10:00:53;6.95;;;2.45;;
65174;SDS011;51761;42.126;24.752;2023-07-29T10:03:21;3.80;;;2.50;;
65174;SDS011;51761;42.126;24.752;2023-07-29T10:05:47;4.90;;;2.90;;
65174;SDS011;51761;42.126;24.752;2023-07-29T10:08:13;6.35;;;3.45;;
65174;SDS011;51761;42.126;24.752;2023-07-29T10:10:41;4.15;;;2.80;;
65174;SDS011;51761;42.126;24.752;2023-07-29T10:13:07;6.35;;;2.45;;
65174;SDS011;51761;42.126;24.752;2023-07-29T10:15:34;5.35;;;2.70;;
65174;SDS011;51761;42.126;24.752;2023-07-29T10:18:01;9.35;;;2.90;;
65174;SDS011;51761;42.126;24.752;2023-07-29T10:20:27;5.45;;;2.63;;
65174;SDS011;51761;42.126;24.752;2023-07-29T10:22:55;7.57;;;2.80;;
65174;SDS011;51761;42.126;24.752;2023-07-29T10:25:24;6.28;;;2.83;;
65174;SDS011;51761;42.126;24.752;2023-07-29T10:28:04;5.88;;;2.75;;
65174;SDS011;51761;42.126;24.752;2023-07-29T10:30:31;5.22;;;2.80;;
65174;SDS011;51761;42.126;24.752;2023-07-29T10:32:58;5.00;;;2.55;;
65174;SDS011;51761;42.126;24.752;2023-07-29T10:35:26;4.22;;;2.78;;
65174;SDS011;51761;42.126;24.752;2023-07-29T10:37:52;4.78;;;2.58;;
65174;SDS011;51761;42.126;24.752;2023-07-29T10:40:18;9.55;;;2.42;;
65174;SDS011;51761;42.126;24.752;2023-07-29T10:43:06;4.55;;;2.83;;
65174;SDS011;51761;42.126;24.752;2023-07-29T10:45:38;5.72;;;2.80;;
65174;SDS011;51761;42.126;24.752;2023-07-29T10:48:05;3.42;;;2.08;;
65174;SDS011;51761;42.126;24.752;2023-07-29T10:50:37;3.58;;;2.47;;
65174;SDS011;51761;42.126;24.752;2023-07-29T10:53:03;3.95;;;2.55;;
65174;SDS011;51761;42.126;24.752;2023-07-29T10:55:31;2.85;;;2.10;;
65174;SDS011;51761;42.126;24.752;2023-07-29T10:58:09;3.53;;;2.05;;
65174;SDS011;51761;42.126;24.752;2023-07-29T11:00:34;5.18;;;2.25;;
65174;SDS011;51761;42.126;24.752;2023-07-29T11:03:05;4.25;;;1.98;;
65174;SDS011;51761;42.126;24.752;2023-07-29T11:05:48;5.32;;;2.60;;
65174;SDS011;51761;42.126;24.752;2023-07-29T11:08:20;3.17;;;2.33;;
65174;SDS011;51761;42.126;24.752;2023-07-29T11:13:43;4.65;;;2.80;;
65174;SDS011;51761;42.126;24.752;2023-07-29T11:16:09;3.42;;;2.45;;
65174;SDS011;51761;42.126;24.752;2023-07-29T11:18:35;3.33;;;2.55;;
65174;SDS011;51761;42.126;24.752;2023-07-29T11:21:02;3.50;;;2.47;;
65174;SDS011;51761;42.126;24.752;2023-07-29T11:23:37;5.47;;;2.92;;
65174;SDS011;51761;42.126;24.752;2023-07-29T11:26:03;3.88;;;2.30;;
65174;SDS011;51761;42.126;24.752;2023-07-29T11:28:29;5.20;;;2.65;;
65174;SDS011;51761;42.126;24.752;2023-07-29T11:30:55;3.22;;;2.72;;
65174;SDS011;51761;42.126;24.752;2023-07-29T11:33:23;3.40;;;2.03;;
65174;SDS011;51761;42.126;24.752;2023-07-29T11:35:53;7.03;;;2.78;;
65174;SDS011;51761;42.126;24.752;2023-07-29T11:38:19;2.90;;;2.08;;
65174;SDS011;51761;42.126;24.752;2023-07-29T11:40:59;5.95;;;2.25;;
65174;SDS011;51761;42.126;24.752;2023-07-29T11:43:28;7.15;;;2.40;;
65174;SDS011;51761;42.126;24.752;2023-07-29T11:45:53;3.15;;;2.13;;
65174;SDS011;51761;42.126;24.752;2023-07-29T11:48:30;5.63;;;2.22;;
65174;SDS011;51761;42.126;24.752;2023-07-29T11:50:57;2.00;;;1.77;;
65174;SDS011;51761;42.126;24.752;2023-07-29T11:53:25;2.38;;;1.98;;
65174;SDS011;51761;42.126;24.752;2023-07-29T11:55:52;3.35;;;2.25;;
65174;SDS011;51761;42.126;24.752;2023-07-29T11:58:18;4.65;;;1.95;;
65174;SDS011;51761;42.126;24.752;2023-07-29T12:00:43;2.35;;;1.80;;
65174;SDS011;51761;42.126;24.752;2023-07-29T12:03:09;5.63;;;2.28;;
65174;SDS011;51761;42.126;24.752;2023-07-29T12:05:35;2.80;;;2.05;;
65174;SDS011;51761;42.126;24.752;2023-07-29T12:08:01;3.33;;;2.00;;
65174;SDS011;51761;42.126;24.752;2023-07-29T12:10:27;3.25;;;2.20;;
65174;SDS011;51761;42.126;24.752;2023-07-29T12:12:53;4.63;;;2.08;;
65174;SDS011;51761;42.126;24.752;2023-07-29T12:15:28;2.67;;;1.88;;
65174;SDS011;51761;42.126;24.752;2023-07-29T12:17:55;3.70;;;1.83;;
65174;SDS011;51761;42.126;24.752;2023-07-29T12:20:22;3.17;;;2.05;;
65174;SDS011;51761;42.126;24.752;2023-07-29T12:22:52;2.00;;;1.60;;
65174;SDS011;51761;42.126;24.752;2023-07-29T12:25:21;2.45;;;1.65;;
65174;SDS011;51761;42.126;24.752;2023-07-29T12:27:47;2.47;;;1.38;;
65174;SDS011;51761;42.126;24.752;2023-07-29T12:30:13;2.10;;;1.60;;
65174;SDS011;51761;42.126;24.752;2023-07-29T12:32:44;1.75;;;1.40;;
65174;SDS011;51761;42.126;24.752;2023-07-29T12:35:11;2.43;;;1.60;;
65174;SDS011;51761;42.126;24.752;2023-07-29T12:37:37;2.05;;;1.23;;
65174;SDS011;51761;42.126;24.752;2023-07-29T12:40:04;4.30;;;1.60;;
65174;SDS011;51761;42.126;24.752;2023-07-29T12:42:30;2.75;;;1.17;;
65174;SDS011;51761;42.126;24.752;2023-07-29T12:44:55;3.67;;;0.98;;
65174;SDS011;51761;42.126;24.752;2023-07-29T12:47:21;1.23;;;0.98;;
65174;SDS011;51761;42.126;24.752;2023-07-29T12:49:46;4.05;;;1.30;;
65174;SDS011;51761;42.126;24.752;2023-07-29T12:52:12;2.65;;;1.15;;
65174;SDS011;51761;42.126;24.752;2023-07-29T12:54:37;3.42;;;1.20;;
65174;SDS011;51761;42.126;24.752;2023-07-29T12:57:03;1.70;;;0.95;;
65174;SDS011;51761;42.126;24.752;2023-07-29T12:59:28;1.02;;;0.88;;
65174;SDS011;51761;42.126;24.752;2023-07-29T13:01:54;1.35;;;1.00;;
65174;SDS011;51761;42.126;24.752;2023-07-29T13:04:19;4.80;;;1.10;;
65174;SDS011;51761;42.126;24.752;2023-07-29T13:06:45;1.75;;;1.00;;
65174;SDS011;51761;42.126;24.752;2023-07-29T13:09:10;5.97;;;0.90;;
65174;SDS011;51761;42.126;24.752;2023-07-29T13:11:35;1.20;;;0.82;;
65174;SDS011;51761;42.126;24.752;2023-07-29T13:14:01;0.70;;;0.68;;
65174;SDS011;51761;42.126;24.752;2023-07-29T13:16:29;2.08;;;1.00;;
65174;SDS011;51761;42.126;24.752;2023-07-29T13:18:55;2.83;;;1.17;;
65174;SDS011;51761;42.126;24.752;2023-07-29T13:21:21;0.88;;;0.80;;
65174;SDS011;51761;42.126;24.752;2023-07-29T13:23:47;1.13;;;0.90;;
65174;SDS011;51761;42.126;24.752;2023-07-29T13:26:12;2.28;;;0.85;;
65174;SDS011;51761;42.126;24.752;2023-07-29T13:28:38;1.00;;;0.70;;
65174;SDS011;51761;42.126;24.752;2023-07-29T13:31:03;0.77;;;0.57;;
65174;SDS011;51761;42.126;24.752;2023-07-29T13:33:29;1.23;;;0.98;;
65174;SDS011;51761;42.126;24.752;2023-07-29T13:35:58;0.95;;;0.70;;
65174;SDS011;51761;42.126;24.752;2023-07-29T13:38:24;2.10;;;0.90;;
65174;SDS011;51761;42.126;24.752;2023-07-29T13:40:50;1.20;;;0.90;;
65174;SDS011;51761;42.126;24.752;2023-07-29T13:43:16;3.63;;;1.13;;
65174;SDS011;51761;42.126;24.752;2023-07-29T13:45:41;1.45;;;0.90;;
65174;SDS011;51761;42.126;24.752;2023-07-29T13:48:07;1.00;;;0.90;;
65174;SDS011;51761;42.126;24.752;2023-07-29T13:50:32;1.17;;;0.80;;
65174;SDS011;51761;42.126;24.752;2023-07-29T13:52:58;1.55;;;0.93;;
65174;SDS011;51761;42.126;24.752;2023-07-29T13:55:23;1.77;;;0.82;;
65174;SDS011;51761;42.126;24.752;2023-07-29T13:57:49;1.83;;;0.95;;
65174;SDS011;51761;42.126;24.752;2023-07-29T14:00:14;1.42;;;1.00;;
65174;SDS011;51761;42.126;24.752;2023-07-29T14:02:41;2.33;;;1.10;;
65174;SDS011;51761;42.126;24.752;2023-07-29T14:05:07;1.60;;;1.30;;
65174;SDS011;51761;42.126;24.752;2023-07-29T14:07:33;2.70;;;1.10;;
65174;SDS011;51761;42.126;24.752;2023-07-29T14:09:58;2.15;;;1.40;;
65174;SDS011;51761;42.126;24.752;2023-07-29T14:12:24;1.73;;;1.20;;
65174;SDS011;51761;42.126;24.752;2023-07-29T14:14:49;3.28;;;1.30;;
65174;SDS011;51761;42.126;24.752;2023-07-29T14:17:15;1.70;;;1.00;;
65174;SDS011;51761;42.126;24.752;2023-07-29T14:19:40;1.45;;;1.23;;
65174;SDS011;51761;42.126;24.752;2023-07-29T14:22:06;1.90;;;1.38;;
65174;SDS011;51761;42.126;24.752;2023-07-29T14:24:31;1.95;;;1.10;;
65174;SDS011;51761;42.126;24.752;2023-07-29T14:26:57;1.90;;;1.20;;
65174;SDS011;51761;42.126;24.752;2023-07-29T14:29:22;1.10;;;0.90;;
65174;SDS011;51761;42.126;24.752;2023-07-29T14:31:48;3.28;;;1.00;;
65174;SDS011;51761;42.126;24.752;2023-07-29T14:34:13;1.77;;;1.20;;
65174;SDS011;51761;42.126;24.752;2023-07-29T14:36:39;2.20;;;1.20;;
65174;SDS011;51761;42.126;24.752;2023-07-29T14:39:04;1.25;;;1.00;;
65174;SDS011;51761;42.126;24.752;2023-07-29T14:41:30;1.10;;;0.95;;